sensor_id;sensor_type;location;lat;lon;timestamp;temperature;humidity
6114;DHT22;3087;48.392;10.836;2023-04-07T00:01:43;9.80;79.50
6114;DHT22;3087;48.392;10.836;2023-04-07T00:04:08;9.80;80.50
6114;DHT22;3087;48.392;10.836;2023-04-07T00:06:34;9.80;80.00
6114;DHT22;3087;48.392;10.836;2023-04-07T00:09:00;9.80;80.00
6114;DHT22;3087;48.392;10.836;2023-04-07T00:11:26;9.80;80.30
6114;DHT22;3087;48.392;10.836;2023-04-07T00:13:51;11.60;80.90
6114;DHT22;3087;48.392;10.836;2023-04-07T00:16:17;10.50;80.00
6114;DHT22;3087;48.392;10.836;2023-04-07T00:18:43;9.90;80.50
6114;DHT22;3087;48.392;10.836;2023-04-07T00:21:08;9.70;80.40
6114;DHT22;3087;48.392;10.836;2023-04-07T00:23:34;9.70;80.70
6114;DHT22;3087;48.392;10.836;2023-04-07T00:26:00;9.60;80.90
6114;DHT22;3087;48.392;10.836;2023-04-07T00:28:26;9.60;81.30
6114;DHT22;3087;48.392;10.836;2023-04-07T00:30:51;9.50;81.80
6114;DHT22;3087;48.392;10.836;2023-04-07T00:33:17;10.30;82.30
6114;DHT22;3087;48.392;10.836;2023-04-07T00:35:43;11.00;83.80
6114;DHT22;3087;48.392;10.836;2023-04-07T00:38:09;9.10;83.70
6114;DHT22;3087;48.392;10.836;2023-04-07T00:40:34;9.50;84.70
6114;DHT22;3087;48.392;10.836;2023-04-07T00:43:00;9.70;85.70
6114;DHT22;3087;48.392;10.836;2023-04-07T00:45:26;10.40;86.40
6114;DHT22;3087;48.392;10.836;2023-04-07T00:47:52;8.60;87.20
6114;DHT22;3087;48.392;10.836;2023-04-07T00:50:18;8.60;88.70
6114;DHT22;3087;48.392;10.836;2023-04-07T00:52:44;8.50;90.00
6114;DHT22;3087;48.392;10.836;2023-04-07T00:55:10;8.50;90.70
6114;DHT22;3087;48.392;10.836;2023-04-07T00:57:36;8.70;91.70
6114;DHT22;3087;48.392;10.836;2023-04-07T01:00:02;8.50;92.90
6114;DHT22;3087;48.392;10.836;2023-04-07T01:02:56;8.40;94.30
6114;DHT22;3087;48.392;10.836;2023-04-07T01:08:26;8.50;97.10
6114;DHT22;3087;48.392;10.836;2023-04-07T01:11:07;8.50;98.40
6114;DHT22;3087;48.392;10.836;2023-04-07T01:13:36;8.40;99.90
6114;DHT22;3087;48.392;10.836;2023-04-07T01:16:04;8.50;99.90
6114;DHT22;3087;48.392;10.836;2023-04-07T01:18:35;8.50;99.90
6114;DHT22;3087;48.392;10.836;2023-04-07T01:21:05;8.50;99.90
6114;DHT22;3087;48.392;10.836;2023-04-07T01:23:47;8.40;99.90
6114;DHT22;3087;48.392;10.836;2023-04-07T01:31:49;8.70;99.90
6114;DHT22;3087;48.392;10.836;2023-04-07T01:34:16;8.70;99.90
6114;DHT22;3087;48.392;10.836;2023-04-07T01:36:43;8.90;99.90
6114;DHT22;3087;48.392;10.836;2023-04-07T01:39:10;8.70;99.90
6114;DHT22;3087;48.392;10.836;2023-04-07T01:41:37;8.60;99.90
6114;DHT22;3087;48.392;10.836;2023-04-07T01:44:03;8.40;99.90
6114;DHT22;3087;48.392;10.836;2023-04-07T01:46:30;8.30;99.90
6114;DHT22;3087;48.392;10.836;2023-04-07T01:48:57;8.30;99.90
6114;DHT22;3087;48.392;10.836;2023-04-07T01:51:24;8.70;99.90
6114;DHT22;3087;48.392;10.836;2023-04-07T01:53:52;8.80;99.90
6114;DHT22;3087;48.392;10.836;2023-04-07T01:56:18;8.40;99.90
6114;DHT22;3087;48.392;10.836;2023-04-07T01:58:43;8.40;99.90
6114;DHT22;3087;48.392;10.836;2023-04-07T02:01:09;8.60;99.90
6114;DHT22;3087;48.392;10.836;2023-04-07T02:03:54;8.20;99.90
6114;DHT22;3087;48.392;10.836;2023-04-07T02:06:26;8.00;99.90
6114;DHT22;3087;48.392;10.836;2023-04-07T02:08:57;8.00;99.90
6114;DHT22;3087;48.392;10.836;2023-04-07T02:11:25;8.30;99.90
6114;DHT22;3087;48.392;10.836;2023-04-07T02:13:53;8.30;99.90
6114;DHT22;3087;48.392;10.836;2023-04-07T02:16:19;8.40;99.90
6114;DHT22;3087;48.392;10.836;2023-04-07T02:18:47;8.40;99.90
6114;DHT22;3087;48.392;10.836;2023-04-07T02:21:14;7.80;99.90
6114;DHT22;3087;48.392;10.836;2023-04-07T02:23:41;7.60;99.90
6114;DHT22;3087;48.392;10.836;2023-04-07T02:26:06;7.50;99.90
6114;DHT22;3087;48.392;10.836;2023-04-07T02:28:32;7.40;99.90
6114;DHT22;3087;48.392;10.836;2023-04-07T02:30:57;7.60;99.90
6114;DHT22;3087;48.392;10.836;2023-04-07T02:33:23;8.30;99.90
6114;DHT22;3087;48.392;10.836;2023-04-07T02:35:49;8.20;99.90
6114;DHT22;3087;48.392;10.836;2023-04-07T02:38:14;8.20;99.90
6114;DHT22;3087;48.392;10.836;2023-04-07T02:40:40;8.30;99.90
6114;DHT22;3087;48.392;10.836;2023-04-07T02:43:06;8.40;99.90
6114;DHT22;3087;48.392;10.836;2023-04-07T02:45:31;8.50;99.90
6114;DHT22;3087;48.392;10.836;2023-04-07T02:47:57;8.60;99.90
6114;DHT22;3087;48.392;10.836;2023-04-07T02:50:22;8.60;99.90
6114;DHT22;3087;48.392;10.836;2023-04-07T02:52:50;8.60;99.90
6114;DHT22;3087;48.392;10.836;2023-04-07T02:55:16;8.60;99.90
6114;DHT22;3087;48.392;10.836;2023-04-07T02:57:43;8.70;99.90
6114;DHT22;3087;48.392;10.836;2023-04-07T03:00:09;8.70;99.90
6114;DHT22;3087;48.392;10.836;2023-04-07T03:02:35;8.70;99.90
6114;DHT22;3087;48.392;10.836;2023-04-07T03:05:00;8.40;99.90
6114;DHT22;3087;48.392;10.836;2023-04-07T03:07:27;9.60;99.90
6114;DHT22;3087;48.392;10.836;2023-04-07T03:09:55;8.10;99.90
6114;DHT22;3087;48.392;10.836;2023-04-07T03:12:20;7.80;99.90
6114;DHT22;3087;48.392;10.836;2023-04-07T03:14:46;8.10;99.90
6114;DHT22;3087;48.392;10.836;2023-04-07T03:17:12;7.80;99.90
6114;DHT22;3087;48.392;10.836;2023-04-07T03:19:37;7.70;99.90
6114;DHT22;3087;48.392;10.836;2023-04-07T03:22:03;7.60;99.90
6114;DHT22;3087;48.392;10.836;2023-04-07T03:24:28;7.50;99.90
6114;DHT22;3087;48.392;10.836;2023-04-07T03:26:54;7.40;99.90
6114;DHT22;3087;48.392;10.836;2023-04-07T03:29:20;8.30;99.90
6114;DHT22;3087;48.392;10.836;2023-04-07T03:31:46;7.30;99.90
6114;DHT22;3087;48.392;10.836;2023-04-07T03:34:12;7.30;99.90
6114;DHT22;3087;48.392;10.836;2023-04-07T03:36:37;7.20;99.90
6114;DHT22;3087;48.392;10.836;2023-04-07T03:39:03;7.20;99.90
6114;DHT22;3087;48.392;10.836;2023-04-07T03:41:28;7.20;99.90
6114;DHT22;3087;48.392;10.836;2023-04-07T03:43:54;7.20;99.90
6114;DHT22;3087;48.392;10.836;2023-04-07T03:46:20;7.20;99.90
6114;DHT22;3087;48.392;10.836;2023-04-07T03:48:46;7.20;99.90
6114;DHT22;3087;48.392;10.836;2023-04-07T03:51:12;8.00;99.90
6114;DHT22;3087;48.392;10.836;2023-04-07T03:53:37;7.10;99.90
6114;DHT22;3087;48.392;10.836;2023-04-07T03:56:03;7.10;99.90
6114;DHT22;3087;48.392;10.836;2023-04-07T03:58:29;7.20;99.90
6114;DHT22;3087;48.392;10.836;2023-04-07T04:00:54;7.10;99.90
6114;DHT22;3087;48.392;10.836;2023-04-07T04:03:20;7.10;99.90
6114;DHT22;3087;48.392;10.836;2023-04-07T04:05:45;7.10;99.90
6114;DHT22;3087;48.392;10.836;2023-04-07T04:08:11;7.10;99.90
6114;DHT22;3087;48.392;10.836;2023-04-07T04:10:37;7.20;99.90
6114;DHT22;3087;48.392;10.836;2023-04-07T04:13:02;7.10;99.90
6114;DHT22;3087;48.392;10.836;2023-04-07T04:15:31;7.10;99.90
6114;DHT22;3087;48.392;10.836;2023-04-07T04:17:56;7.10;99.90
6114;DHT22;3087;48.392;10.836;2023-04-07T04:20:22;7.10;99.90
6114;DHT22;3087;48.392;10.836;2023-04-07T04:22:47;7.00;99.90
6114;DHT22;3087;48.392;10.836;2023-04-07T04:25:13;7.00;99.90
6114;DHT22;3087;48.392;10.836;2023-04-07T04:27:39;7.00;99.90
6114;DHT22;3087;48.392;10.836;2023-04-07T04:30:05;6.90;99.90
6114;DHT22;3087;48.392;10.836;2023-04-07T04:32:31;6.90;99.90
6114;DHT22;3087;48.392;10.836;2023-04-07T04:34:57;6.90;99.90
6114;DHT22;3087;48.392;10.836;2023-04-07T04:37:22;6.90;99.90
6114;DHT22;3087;48.392;10.836;2023-04-07T04:39:48;7.40;99.90
6114;DHT22;3087;48.392;10.836;2023-04-07T04:42:13;7.00;99.90
6114;DHT22;3087;48.392;10.836;2023-04-07T04:44:39;6.90;99.90
6114;DHT22;3087;48.392;10.836;2023-04-07T04:47:05;6.90;99.90
6114;DHT22;3087;48.392;10.836;2023-04-07T04:49:30;6.80;99.90
6114;DHT22;3087;48.392;10.836;2023-04-07T04:51:56;6.80;99.90
6114;DHT22;3087;48.392;10.836;2023-04-07T04:54:22;6.70;99.90
6114;DHT22;3087;48.392;10.836;2023-04-07T04:56:47;6.70;99.90
6114;DHT22;3087;48.392;10.836;2023-04-07T04:59:13;6.80;99.90
6114;DHT22;3087;48.392;10.836;2023-04-07T05:01:39;6.70;99.90
6114;DHT22;3087;48.392;10.836;2023-04-07T05:04:05;6.70;99.90
6114;DHT22;3087;48.392;10.836;2023-04-07T05:06:30;6.70;99.90
6114;DHT22;3087;48.392;10.836;2023-04-07T05:08:56;6.60;99.90
6114;DHT22;3087;48.392;10.836;2023-04-07T05:11:22;6.60;99.90
6114;DHT22;3087;48.392;10.836;2023-04-07T05:13:48;6.60;99.90
6114;DHT22;3087;48.392;10.836;2023-04-07T05:16:13;6.60;99.90
6114;DHT22;3087;48.392;10.836;2023-04-07T05:18:39;6.60;99.90
6114;DHT22;3087;48.392;10.836;2023-04-07T05:21:04;6.60;99.90
6114;DHT22;3087;48.392;10.836;2023-04-07T05:23:30;6.60;99.90
6114;DHT22;3087;48.392;10.836;2023-04-07T05:25:55;6.60;99.90
6114;DHT22;3087;48.392;10.836;2023-04-07T05:28:21;6.50;99.90
6114;DHT22;3087;48.392;10.836;2023-04-07T05:30:47;6.50;99.90
6114;DHT22;3087;48.392;10.836;2023-04-07T05:33:13;6.80;99.90
6114;DHT22;3087;48.392;10.836;2023-04-07T05:35:38;7.50;99.90
6114;DHT22;3087;48.392;10.836;2023-04-07T05:38:04;6.50;99.90
6114;DHT22;3087;48.392;10.836;2023-04-07T05:40:29;6.50;99.90
6114;DHT22;3087;48.392;10.836;2023-04-07T05:42:55;6.60;99.90
6114;DHT22;3087;48.392;10.836;2023-04-07T05:45:21;6.60;99.90
6114;DHT22;3087;48.392;10.836;2023-04-07T05:47:46;6.60;99.90
6114;DHT22;3087;48.392;10.836;2023-04-07T05:50:15;6.60;99.90
6114;DHT22;3087;48.392;10.836;2023-04-07T05:52:40;6.60;99.90
6114;DHT22;3087;48.392;10.836;2023-04-07T05:55:06;6.60;99.90
6114;DHT22;3087;48.392;10.836;2023-04-07T05:57:32;6.60;99.90
6114;DHT22;3087;48.392;10.836;2023-04-07T05:59:59;6.60;99.90
6114;DHT22;3087;48.392;10.836;2023-04-07T06:02:24;8.20;99.90
6114;DHT22;3087;48.392;10.836;2023-04-07T06:04:50;6.70;99.90
6114;DHT22;3087;48.392;10.836;2023-04-07T06:07:16;6.60;99.90
6114;DHT22;3087;48.392;10.836;2023-04-07T06:09:41;6.60;99.90
6114;DHT22;3087;48.392;10.836;2023-04-07T06:12:07;6.70;99.90
6114;DHT22;3087;48.392;10.836;2023-04-07T06:14:33;6.70;99.90
6114;DHT22;3087;48.392;10.836;2023-04-07T06:16:59;6.70;99.90
6114;DHT22;3087;48.392;10.836;2023-04-07T06:19:25;6.70;99.90
6114;DHT22;3087;48.392;10.836;2023-04-07T06:21:52;5.10;99.90
6114;DHT22;3087;48.392;10.836;2023-04-07T06:24:17;6.60;99.90
6114;DHT22;3087;48.392;10.836;2023-04-07T06:26:43;6.70;99.90
6114;DHT22;3087;48.392;10.836;2023-04-07T06:29:09;6.70;99.90
6114;DHT22;3087;48.392;10.836;2023-04-07T06:31:35;6.70;99.90
6114;DHT22;3087;48.392;10.836;2023-04-07T06:34:01;6.80;99.90
6114;DHT22;3087;48.392;10.836;2023-04-07T06:36:27;6.70;99.90
6114;DHT22;3087;48.392;10.836;2023-04-07T06:38:53;6.80;99.90
6114;DHT22;3087;48.392;10.836;2023-04-07T06:41:19;6.80;99.90
6114;DHT22;3087;48.392;10.836;2023-04-07T06:43:48;6.80;99.90
6114;DHT22;3087;48.392;10.836;2023-04-07T06:46:16;6.80;99.90
6114;DHT22;3087;48.392;10.836;2023-04-07T06:48:41;6.70;99.90
6114;DHT22;3087;48.392;10.836;2023-04-07T06:51:07;6.80;99.90
6114;DHT22;3087;48.392;10.836;2023-04-07T06:53:32;6.80;99.90
6114;DHT22;3087;48.392;10.836;2023-04-07T06:56:05;6.80;99.90
6114;DHT22;3087;48.392;10.836;2023-04-07T06:58:32;6.80;99.90
6114;DHT22;3087;48.392;10.836;2023-04-07T07:00:57;6.90;99.90
6114;DHT22;3087;48.392;10.836;2023-04-07T07:03:23;6.90;99.90
6114;DHT22;3087;48.392;10.836;2023-04-07T07:05:53;7.00;99.90
6114;DHT22;3087;48.392;10.836;2023-04-07T07:08:18;7.00;99.90
6114;DHT22;3087;48.392;10.836;2023-04-07T07:10:44;7.00;99.90
6114;DHT22;3087;48.392;10.836;2023-04-07T07:13:09;7.40;99.90
6114;DHT22;3087;48.392;10.836;2023-04-07T07:15:35;7.00;99.90
6114;DHT22;3087;48.392;10.836;2023-04-07T07:18:01;7.20;99.90
6114;DHT22;3087;48.392;10.836;2023-04-07T07:20:26;7.10;99.90
6114;DHT22;3087;48.392;10.836;2023-04-07T07:22:52;7.10;99.90
6114;DHT22;3087;48.392;10.836;2023-04-07T07:25:19;7.10;99.90
6114;DHT22;3087;48.392;10.836;2023-04-07T07:27:44;7.30;99.90
6114;DHT22;3087;48.392;10.836;2023-04-07T07:30:10;7.50;99.90
6114;DHT22;3087;48.392;10.836;2023-04-07T07:32:36;7.50;99.90
6114;DHT22;3087;48.392;10.836;2023-04-07T07:35:01;7.60;99.90
6114;DHT22;3087;48.392;10.836;2023-04-07T07:37:27;7.90;99.90
6114;DHT22;3087;48.392;10.836;2023-04-07T07:39:52;8.40;99.90
6114;DHT22;3087;48.392;10.836;2023-04-07T07:42:18;7.70;99.90
6114;DHT22;3087;48.392;10.836;2023-04-07T07:44:44;7.70;99.90
6114;DHT22;3087;48.392;10.836;2023-04-07T07:47:09;8.80;99.90
6114;DHT22;3087;48.392;10.836;2023-04-07T07:49:36;7.90;99.90
6114;DHT22;3087;48.392;10.836;2023-04-07T07:52:02;8.00;99.90
6114;DHT22;3087;48.392;10.836;2023-04-07T07:54:28;8.00;99.90
6114;DHT22;3087;48.392;10.836;2023-04-07T07:56:53;8.00;99.90
6114;DHT22;3087;48.392;10.836;2023-04-07T07:59:19;8.00;99.90
6114;DHT22;3087;48.392;10.836;2023-04-07T08:01:46;8.40;99.90
6114;DHT22;3087;48.392;10.836;2023-04-07T08:04:11;8.90;99.90
6114;DHT22;3087;48.392;10.836;2023-04-07T08:06:37;8.10;99.90
6114;DHT22;3087;48.392;10.836;2023-04-07T08:09:02;8.20;99.90
6114;DHT22;3087;48.392;10.836;2023-04-07T08:11:28;8.50;99.90
6114;DHT22;3087;48.392;10.836;2023-04-07T08:13:54;8.40;99.90
6114;DHT22;3087;48.392;10.836;2023-04-07T08:16:19;8.60;99.90
6114;DHT22;3087;48.392;10.836;2023-04-07T08:18:46;8.60;99.90
6114;DHT22;3087;48.392;10.836;2023-04-07T08:21:12;8.70;99.90
6114;DHT22;3087;48.392;10.836;2023-04-07T08:23:37;8.80;99.90
6114;DHT22;3087;48.392;10.836;2023-04-07T08:26:03;10.90;99.90
6114;DHT22;3087;48.392;10.836;2023-04-07T08:28:28;9.00;99.90
6114;DHT22;3087;48.392;10.836;2023-04-07T08:30:54;9.20;99.90
6114;DHT22;3087;48.392;10.836;2023-04-07T08:33:20;9.40;99.90
6114;DHT22;3087;48.392;10.836;2023-04-07T08:35:47;9.40;99.90
6114;DHT22;3087;48.392;10.836;2023-04-07T08:38:12;9.70;99.90
6114;DHT22;3087;48.392;10.836;2023-04-07T08:40:38;9.60;99.90
6114;DHT22;3087;48.392;10.836;2023-04-07T08:43:08;9.60;99.90
6114;DHT22;3087;48.392;10.836;2023-04-07T08:45:38;9.70;99.90
6114;DHT22;3087;48.392;10.836;2023-04-07T08:48:08;10.00;99.90
6114;DHT22;3087;48.392;10.836;2023-04-07T08:50:36;10.30;99.90
6114;DHT22;3087;48.392;10.836;2023-04-07T08:53:06;10.50;99.90
6114;DHT22;3087;48.392;10.836;2023-04-07T08:55:34;10.50;99.90
6114;DHT22;3087;48.392;10.836;2023-04-07T08:58:00;10.70;99.90
6114;DHT22;3087;48.392;10.836;2023-04-07T09:00:27;11.70;99.90
6114;DHT22;3087;48.392;10.836;2023-04-07T09:02:53;10.90;99.90
6114;DHT22;3087;48.392;10.836;2023-04-07T09:05:21;10.90;99.90
6114;DHT22;3087;48.392;10.836;2023-04-07T09:07:49;11.80;99.90
6114;DHT22;3087;48.392;10.836;2023-04-07T09:10:15;10.90;99.90
6114;DHT22;3087;48.392;10.836;2023-04-07T09:12:41;11.10;99.90
6114;DHT22;3087;48.392;10.836;2023-04-07T09:15:07;12.00;99.90
6114;DHT22;3087;48.392;10.836;2023-04-07T09:17:33;11.80;99.90
6114;DHT22;3087;48.392;10.836;2023-04-07T09:20:00;12.20;99.90
6114;DHT22;3087;48.392;10.836;2023-04-07T09:22:42;12.50;99.90
6114;DHT22;3087;48.392;10.836;2023-04-07T09:25:20;12.60;99.90
6114;DHT22;3087;48.392;10.836;2023-04-07T09:30:20;12.70;99.90
6114;DHT22;3087;48.392;10.836;2023-04-07T09:32:46;12.90;99.90
6114;DHT22;3087;48.392;10.836;2023-04-07T09:35:12;15.70;99.90
6114;DHT22;3087;48.392;10.836;2023-04-07T09:37:40;13.70;99.90
6114;DHT22;3087;48.392;10.836;2023-04-07T09:40:07;13.40;99.90
6114;DHT22;3087;48.392;10.836;2023-04-07T09:42:33;13.30;99.90
6114;DHT22;3087;48.392;10.836;2023-04-07T09:45:02;13.30;99.90
6114;DHT22;3087;48.392;10.836;2023-04-07T09:47:31;13.40;99.90
6114;DHT22;3087;48.392;10.836;2023-04-07T09:49:57;13.50;99.90
6114;DHT22;3087;48.392;10.836;2023-04-07T09:52:52;13.60;99.90
6114;DHT22;3087;48.392;10.836;2023-04-07T09:55:22;13.50;99.90
6114;DHT22;3087;48.392;10.836;2023-04-07T09:57:51;13.50;99.90
6114;DHT22;3087;48.392;10.836;2023-04-07T10:00:19;13.50;99.90
6114;DHT22;3087;48.392;10.836;2023-04-07T10:02:46;13.30;99.90
6114;DHT22;3087;48.392;10.836;2023-04-07T10:05:13;13.30;99.90
6114;DHT22;3087;48.392;10.836;2023-04-07T10:07:42;13.20;99.90
6114;DHT22;3087;48.392;10.836;2023-04-07T10:10:08;13.10;99.90
6114;DHT22;3087;48.392;10.836;2023-04-07T10:12:36;13.10;99.90
6114;DHT22;3087;48.392;10.836;2023-04-07T10:15:02;13.20;99.90
6114;DHT22;3087;48.392;10.836;2023-04-07T10:17:28;13.30;99.90
6114;DHT22;3087;48.392;10.836;2023-04-07T10:19:57;13.40;99.90
6114;DHT22;3087;48.392;10.836;2023-04-07T10:22:26;13.40;99.90
6114;DHT22;3087;48.392;10.836;2023-04-07T10:25:05;15.40;99.90
6114;DHT22;3087;48.392;10.836;2023-04-07T10:27:55;13.90;99.90
6114;DHT22;3087;48.392;10.836;2023-04-07T10:30:28;14.10;99.90
6114;DHT22;3087;48.392;10.836;2023-04-07T10:32:54;16.10;99.90
6114;DHT22;3087;48.392;10.836;2023-04-07T10:38:24;14.30;99.90
6114;DHT22;3087;48.392;10.836;2023-04-07T10:40:50;14.10;99.90
6114;DHT22;3087;48.392;10.836;2023-04-07T10:43:36;14.90;99.90
6114;DHT22;3087;48.392;10.836;2023-04-07T10:46:03;15.50;99.90
6114;DHT22;3087;48.392;10.836;2023-04-07T10:48:28;15.80;99.90
6114;DHT22;3087;48.392;10.836;2023-04-07T10:53:29;15.10;99.90
6114;DHT22;3087;48.392;10.836;2023-04-07T10:55:56;15.10;99.90
6114;DHT22;3087;48.392;10.836;2023-04-07T10:58:31;15.10;99.90
6114;DHT22;3087;48.392;10.836;2023-04-07T11:03:52;14.60;99.90
6114;DHT22;3087;48.392;10.836;2023-04-07T11:06:21;14.30;99.90
6114;DHT22;3087;48.392;10.836;2023-04-07T11:08:47;14.00;99.90
6114;DHT22;3087;48.392;10.836;2023-04-07T11:11:33;13.80;99.90
6114;DHT22;3087;48.392;10.836;2023-04-07T11:13:59;13.70;99.90
6114;DHT22;3087;48.392;10.836;2023-04-07T11:16:38;13.70;99.90
6114;DHT22;3087;48.392;10.836;2023-04-07T11:19:04;15.80;99.90
6114;DHT22;3087;48.392;10.836;2023-04-07T11:21:31;13.70;99.90
6114;DHT22;3087;48.392;10.836;2023-04-07T11:23:57;13.80;99.90
6114;DHT22;3087;48.392;10.836;2023-04-07T11:26:23;13.80;99.90
6114;DHT22;3087;48.392;10.836;2023-04-07T11:28:53;13.50;99.90
6114;DHT22;3087;48.392;10.836;2023-04-07T11:31:29;13.20;99.90
6114;DHT22;3087;48.392;10.836;2023-04-07T11:34:01;12.90;99.90
6114;DHT22;3087;48.392;10.836;2023-04-07T11:36:37;12.90;99.90
6114;DHT22;3087;48.392;10.836;2023-04-07T11:39:03;12.90;99.90
6114;DHT22;3087;48.392;10.836;2023-04-07T11:41:31;12.90;99.90
6114;DHT22;3087;48.392;10.836;2023-04-07T11:44:11;13.00;99.90
6114;DHT22;3087;48.392;10.836;2023-04-07T11:49:19;13.20;99.90
6114;DHT22;3087;48.392;10.836;2023-04-07T11:51:45;13.40;99.90
6114;DHT22;3087;48.392;10.836;2023-04-07T11:54:11;13.50;99.90
6114;DHT22;3087;48.392;10.836;2023-04-07T11:56:48;14.00;99.90
6114;DHT22;3087;48.392;10.836;2023-04-07T11:59:23;14.30;99.90
6114;DHT22;3087;48.392;10.836;2023-04-07T12:01:50;15.00;99.90
6114;DHT22;3087;48.392;10.836;2023-04-07T12:04:17;15.80;99.90
6114;DHT22;3087;48.392;10.836;2023-04-07T12:06:44;16.50;99.90
6114;DHT22;3087;48.392;10.836;2023-04-07T12:09:31;16.10;99.90
6114;DHT22;3087;48.392;10.836;2023-04-07T12:11:57;15.70;99.90
6114;DHT22;3087;48.392;10.836;2023-04-07T12:14:24;15.40;99.90
6114;DHT22;3087;48.392;10.836;2023-04-07T12:16:50;15.30;99.90
6114;DHT22;3087;48.392;10.836;2023-04-07T12:19:17;15.00;99.90
6114;DHT22;3087;48.392;10.836;2023-04-07T12:21:43;14.90;99.90
6114;DHT22;3087;48.392;10.836;2023-04-07T12:24:09;14.70;99.90
6114;DHT22;3087;48.392;10.836;2023-04-07T12:26:34;14.40;99.90
6114;DHT22;3087;48.392;10.836;2023-04-07T12:29:00;14.20;99.90
6114;DHT22;3087;48.392;10.836;2023-04-07T12:31:30;14.00;99.90
6114;DHT22;3087;48.392;10.836;2023-04-07T12:33:57;13.70;99.90
6114;DHT22;3087;48.392;10.836;2023-04-07T12:36:23;13.50;99.90
6114;DHT22;3087;48.392;10.836;2023-04-07T12:38:50;13.60;99.90
6114;DHT22;3087;48.392;10.836;2023-04-07T12:41:16;13.70;99.90
6114;DHT22;3087;48.392;10.836;2023-04-07T12:43:41;13.70;99.90
6114;DHT22;3087;48.392;10.836;2023-04-07T12:46:07;13.80;99.90
6114;DHT22;3087;48.392;10.836;2023-04-07T12:48:32;13.90;99.90
6114;DHT22;3087;48.392;10.836;2023-04-07T12:50:58;14.10;99.90
6114;DHT22;3087;48.392;10.836;2023-04-07T12:53:25;14.40;99.90
6114;DHT22;3087;48.392;10.836;2023-04-07T12:55:51;14.60;99.90
6114;DHT22;3087;48.392;10.836;2023-04-07T12:58:17;14.70;99.90
6114;DHT22;3087;48.392;10.836;2023-04-07T13:00:44;14.70;99.90
6114;DHT22;3087;48.392;10.836;2023-04-07T13:03:11;14.70;99.90
6114;DHT22;3087;48.392;10.836;2023-04-07T13:05:37;14.70;99.90
6114;DHT22;3087;48.392;10.836;2023-04-07T13:08:03;14.80;99.90
6114;DHT22;3087;48.392;10.836;2023-04-07T13:10:29;14.90;99.90
6114;DHT22;3087;48.392;10.836;2023-04-07T13:12:55;14.80;99.90
6114;DHT22;3087;48.392;10.836;2023-04-07T13:15:20;14.50;99.90
6114;DHT22;3087;48.392;10.836;2023-04-07T13:17:46;14.60;99.90
6114;DHT22;3087;48.392;10.836;2023-04-07T13:20:12;14.60;99.90
6114;DHT22;3087;48.392;10.836;2023-04-07T13:22:38;14.40;99.90
6114;DHT22;3087;48.392;10.836;2023-04-07T13:25:04;14.20;99.90
6114;DHT22;3087;48.392;10.836;2023-04-07T13:27:30;13.80;99.90
6114;DHT22;3087;48.392;10.836;2023-04-07T13:29:55;13.70;99.90
6114;DHT22;3087;48.392;10.836;2023-04-07T13:32:21;13.60;99.90
6114;DHT22;3087;48.392;10.836;2023-04-07T13:34:47;13.50;99.90
6114;DHT22;3087;48.392;10.836;2023-04-07T13:37:13;13.40;99.90
6114;DHT22;3087;48.392;10.836;2023-04-07T13:39:39;13.40;99.90
6114;DHT22;3087;48.392;10.836;2023-04-07T13:42:04;13.40;99.90
6114;DHT22;3087;48.392;10.836;2023-04-07T13:44:31;13.40;99.90
6114;DHT22;3087;48.392;10.836;2023-04-07T13:46:58;13.40;99.90
6114;DHT22;3087;48.392;10.836;2023-04-07T13:49:23;13.60;99.90
6114;DHT22;3087;48.392;10.836;2023-04-07T13:51:49;13.40;99.90
6114;DHT22;3087;48.392;10.836;2023-04-07T13:54:15;13.30;99.90
6114;DHT22;3087;48.392;10.836;2023-04-07T13:56:42;13.30;99.90
6114;DHT22;3087;48.392;10.836;2023-04-07T13:59:08;13.30;99.90
6114;DHT22;3087;48.392;10.836;2023-04-07T14:01:34;13.40;99.90
6114;DHT22;3087;48.392;10.836;2023-04-07T14:04:03;13.30;99.90
6114;DHT22;3087;48.392;10.836;2023-04-07T14:06:29;13.20;99.90
6114;DHT22;3087;48.392;10.836;2023-04-07T14:08:56;13.30;99.90
6114;DHT22;3087;48.392;10.836;2023-04-07T14:11:22;13.40;99.90
6114;DHT22;3087;48.392;10.836;2023-04-07T14:13:48;13.50;99.90
6114;DHT22;3087;48.392;10.836;2023-04-07T14:16:15;13.60;99.90
6114;DHT22;3087;48.392;10.836;2023-04-07T14:18:41;13.70;99.90
6114;DHT22;3087;48.392;10.836;2023-04-07T14:21:07;13.60;99.90
6114;DHT22;3087;48.392;10.836;2023-04-07T14:23:32;13.90;99.90
6114;DHT22;3087;48.392;10.836;2023-04-07T14:25:58;13.70;99.90
6114;DHT22;3087;48.392;10.836;2023-04-07T14:28:24;14.00;99.90
6114;DHT22;3087;48.392;10.836;2023-04-07T14:30:50;13.00;99.90
6114;DHT22;3087;48.392;10.836;2023-04-07T14:33:16;13.80;99.90
6114;DHT22;3087;48.392;10.836;2023-04-07T14:35:42;13.90;99.90
6114;DHT22;3087;48.392;10.836;2023-04-07T14:38:08;13.60;99.90
6114;DHT22;3087;48.392;10.836;2023-04-07T14:40:34;13.60;99.90
6114;DHT22;3087;48.392;10.836;2023-04-07T14:43:00;13.60;99.90
6114;DHT22;3087;48.392;10.836;2023-04-07T14:45:26;13.50;99.90
6114;DHT22;3087;48.392;10.836;2023-04-07T14:47:51;13.80;99.90
6114;DHT22;3087;48.392;10.836;2023-04-07T14:50:17;13.60;99.90
6114;DHT22;3087;48.392;10.836;2023-04-07T14:52:43;13.50;99.90
6114;DHT22;3087;48.392;10.836;2023-04-07T14:55:09;13.50;99.90
6114;DHT22;3087;48.392;10.836;2023-04-07T14:57:35;13.60;99.90
6114;DHT22;3087;48.392;10.836;2023-04-07T15:00:01;13.70;99.90
6114;DHT22;3087;48.392;10.836;2023-04-07T15:02:27;13.60;99.90
6114;DHT22;3087;48.392;10.836;2023-04-07T15:04:53;13.50;99.90
6114;DHT22;3087;48.392;10.836;2023-04-07T15:07:18;13.80;99.90
6114;DHT22;3087;48.392;10.836;2023-04-07T15:09:46;13.60;99.90
6114;DHT22;3087;48.392;10.836;2023-04-07T15:12:12;13.60;99.90
6114;DHT22;3087;48.392;10.836;2023-04-07T15:14:37;13.60;99.90
6114;DHT22;3087;48.392;10.836;2023-04-07T15:17:03;13.60;99.90
6114;DHT22;3087;48.392;10.836;2023-04-07T15:19:29;13.40;99.90
6114;DHT22;3087;48.392;10.836;2023-04-07T15:21:54;13.40;99.90
6114;DHT22;3087;48.392;10.836;2023-04-07T15:24:20;13.30;99.90
6114;DHT22;3087;48.392;10.836;2023-04-07T15:26:47;13.40;99.90
6114;DHT22;3087;48.392;10.836;2023-04-07T15:29:12;13.30;99.90
6114;DHT22;3087;48.392;10.836;2023-04-07T15:31:38;13.20;99.90
6114;DHT22;3087;48.392;10.836;2023-04-07T15:34:03;13.10;99.90
6114;DHT22;3087;48.392;10.836;2023-04-07T15:36:30;13.00;99.90
6114;DHT22;3087;48.392;10.836;2023-04-07T15:38:56;13.00;99.90
6114;DHT22;3087;48.392;10.836;2023-04-07T15:41:21;13.20;99.90
6114;DHT22;3087;48.392;10.836;2023-04-07T15:43:47;13.00;99.90
6114;DHT22;3087;48.392;10.836;2023-04-07T15:46:14;12.90;99.90
6114;DHT22;3087;48.392;10.836;2023-04-07T15:48:40;12.90;99.90
6114;DHT22;3087;48.392;10.836;2023-04-07T15:51:05;12.80;99.90
6114;DHT22;3087;48.392;10.836;2023-04-07T15:53:31;12.80;99.90
6114;DHT22;3087;48.392;10.836;2023-04-07T15:55:56;14.60;99.90
6114;DHT22;3087;48.392;10.836;2023-04-07T15:58:22;13.40;99.90
6114;DHT22;3087;48.392;10.836;2023-04-07T16:00:48;15.10;99.90
6114;DHT22;3087;48.392;10.836;2023-04-07T16:03:14;12.80;99.90
6114;DHT22;3087;48.392;10.836;2023-04-07T16:05:39;12.80;99.90
6114;DHT22;3087;48.392;10.836;2023-04-07T16:08:05;12.90;99.90
6114;DHT22;3087;48.392;10.836;2023-04-07T16:10:30;12.90;99.90
6114;DHT22;3087;48.392;10.836;2023-04-07T16:12:56;12.90;99.90
6114;DHT22;3087;48.392;10.836;2023-04-07T16:15:22;15.40;99.90